Time;durP1;ratioP1;P1;durP2;ratioP2;P2;SDS_P1;SDS_P2;PMS_P1;PMS_P2;Temp;Humidity;BMP_temperature;BMP_pressure;BME280_temperature;BME280_humidity;BME280_pressure;Samples;Min_cycle;Max_cycle;Signal;HPM_P1;HPM_P2
2023/04/11 05:13:12;;;;;;;0.10;0.10;;;6.70;99.90;;;;;;4828973;29;20584;-88
2023/04/11 05:15:37;;;;;;;0.20;0.20;;;6.80;99.90;;;;;;4825970;29;20138;-86
2023/04/11 05:18:03;;;;;;;0.00;0.00;;;6.80;99.90;;;;;;4825750;29;20140;-88
2023/04/11 05:20:29;;;;;;;0.20;0.20;;;6.80;99.90;;;;;;4826084;29;20050;-91
2023/04/11 05:22:55;;;;;;;0.10;0.10;;;6.80;99.90;;;;;;4825618;29;20476;-86
2023/04/11 05:25:21;;;;;;;0.10;0.10;;;6.80;99.90;;;;;;4829173;29;20145;-88
2023/04/11 05:27:46;;;;;;;0.10;0.10;;;6.80;99.90;;;;;;4829648;29;20125;-86
2023/04/11 05:30:12;;;;;;;0.00;0.00;;;6.90;99.90;;;;;;4829388;29;20072;-89
2023/04/11 05:32:38;;;;;;;0.93;0.17;;;6.90;99.90;;;;;;4844768;29;20061;-87
2023/04/11 05:35:04;;;;;;;0.10;0.10;;;6.90;99.90;;;;;;4829346;29;20058;-89
2023/04/11 05:37:31;;;;;;;0.00;0.00;;;6.80;99.90;;;;;;4829775;29;20054;-89
2023/04/11 05:39:57;;;;;;;0.45;0.10;;;6.90;99.90;;;;;;4829626;29;20054;-88
2023/04/11 05:42:23;;;;;;;0.43;0.20;;;6.80;99.90;;;;;;4827821;29;20133;-82
2023/04/11 05:44:48;;;;;;;0.07;0.07;;;6.80;99.90;;;;;;4843658;29;20054;-82
2023/04/11 05:47:14;;;;;;;1.90;0.40;;;6.80;99.90;;;;;;4845147;29;20133;-82
2023/04/11 05:49:40;;;;;;;0.20;0.07;;;6.80;99.90;;;;;;4845378;29;20053;-82
2023/04/11 05:52:05;;;;;;;0.27;0.10;;;6.80;99.90;;;;;;4844367;29;20054;-82
2023/04/11 05:54:33;;;;;;;0.00;0.00;;;6.70;99.90;;;;;;4843481;29;20125;-83
2023/04/11 05:56:59;;;;;;;0.10;0.10;;;6.70;99.90;;;;;;4813933;29;20050;-83
2023/04/11 05:59:24;;;;;;;0.20;0.20;;;6.70;99.90;;;;;;4843724;29;20122;-83
2023/04/11 06:01:50;;;;;;;0.30;0.20;;;6.70;99.90;;;;;;4843918;29;20050;-83
2023/04/11 06:04:16;;;;;;;0.20;0.20;;;6.80;99.90;;;;;;4843747;29;20082;-83
2023/04/11 06:06:42;;;;;;;0.00;0.00;;;6.80;99.90;;;;;;4845346;29;20527;-82
2023/04/11 06:09:09;;;;;;;0.00;0.00;;;6.80;99.90;;;;;;4844674;29;20054;-82
2023/04/11 06:11:35;;;;;;;0.25;0.15;;;6.80;99.90;;;;;;4844059;29;20066;-82
2023/04/11 06:14:01;;;;;;;0.23;0.23;;;6.90;99.90;;;;;;4845321;29;20432;-83
2023/04/11 06:16:26;;;;;;;0.30;0.20;;;6.90;99.90;;;;;;4844970;29;20054;-84
2023/04/11 06:18:52;;;;;;;1.17;0.10;;;6.90;99.90;;;;;;4842794;29;20132;-84
2023/04/11 06:21:18;;;;;;;0.17;0.10;;;6.90;99.90;;;;;;4827789;29;20115;-83
2023/04/11 06:23:44;;;;;;;0.23;0.10;;;6.90;99.90;;;;;;4843867;29;20046;-81
2023/04/11 06:26:09;;;;;;;0.83;0.37;;;6.90;99.90;;;;;;4857724;29;20053;-80
2023/04/11 06:28:35;;;;;;;0.30;0.20;;;6.90;99.90;;;;;;4842935;29;20094;-80
2023/04/11 06:31:02;;;;;;;0.30;0.30;;;6.90;99.90;;;;;;4843335;29;20065;-80
2023/04/11 06:33:27;;;;;;;0.13;0.10;;;6.90;99.90;;;;;;4842664;29;20128;-80
2023/04/11 06:35:53;;;;;;;0.20;0.20;;;6.90;99.90;;;;;;4842254;29;20191;-80
2023/04/11 06:38:19;;;;;;;0.00;0.00;;;6.90;99.90;;;;;;4844275;29;20132;-80
2023/04/11 06:40:45;;;;;;;0.22;0.22;;;6.90;99.90;;;;;;4844577;29;20436;-80
2023/04/11 06:43:11;;;;;;;0.10;0.10;;;6.90;99.90;;;;;;4843223;29;20057;-80
2023/04/11 06:45:37;;;;;;;0.20;0.20;;;6.90;99.90;;;;;;4857683;29;20400;-80
2023/04/11 06:48:02;;;;;;;0.00;0.00;;;7.00;99.90;;;;;;4827199;29;20056;-80
2023/04/11 06:50:28;;;;;;;0.07;0.07;;;7.00;99.90;;;;;;4842340;29;20057;-80
2023/04/11 06:52:54;;;;;;;0.10;0.10;;;7.10;99.90;;;;;;4842464;29;20152;-80
2023/04/11 06:55:20;;;;;;;0.30;0.30;;;7.10;99.90;;;;;;4843487;29;20053;-81
2023/04/11 06:57:45;;;;;;;0.20;0.20;;;7.10;99.90;;;;;;4842370;29;20103;-81
2023/04/11 07:00:12;;;;;;;0.30;0.10;;;7.10;99.90;;;;;;4841666;29;20085;-80
2023/04/11 07:02:38;;;;;;;0.22;0.22;;;7.10;99.90;;;;;;4842460;29;20050;-80
2023/04/11 07:05:04;;;;;;;0.10;0.10;;;7.10;99.90;;;;;;4842681;29;20048;-81
2023/04/11 07:07:31;;;;;;;0.00;0.00;;;7.10;99.90;;;;;;4842133;29;20057;-80
2023/04/11 07:09:56;;;;;;;0.20;0.20;;;7.10;99.90;;;;;;4827681;29;20094;-80
2023/04/11 07:12:22;;;;;;;0.00;0.00;;;7.10;99.90;;;;;;4843338;29;20065;-80
2023/04/11 07:14:48;;;;;;;0.00;0.00;;;7.20;99.90;;;;;;4842067;29;20449;-79
2023/04/11 07:17:13;;;;;;;0.00;0.00;;;7.20;99.90;;;;;;4843496;29;20050;-80
2023/04/11 07:19:39;;;;;;;0.07;0.07;;;7.30;99.90;;;;;;4857280;29;20407;-80
2023/04/11 07:22:05;;;;;;;0.03;0.03;;;7.50;99.90;;;;;;4827208;29;20057;-82
2023/04/11 07:24:30;;;;;;;0.00;0.00;;;7.50;99.90;;;;;;4843533;29;20046;-82
2023/04/11 07:27:00;;;;;;;0.03;0.03;;;7.80;99.90;;;;;;4843163;29;20377;-81
2023/04/11 07:29:27;;;;;;;1.33;0.03;;;8.00;99.90;;;;;;4856409;29;20568;-81
2023/04/11 07:31:53;;;;;;;4.78;0.20;;;8.10;99.90;;;;;;4827442;29;20061;-81
2023/04/11 07:34:19;;;;;;;0.17;0.17;;;8.10;99.90;;;;;;4826720;29;20050;-81
2023/04/11 07:36:45;;;;;;;0.37;0.20;;;8.20;99.90;;;;;;4827330;29;20306;-81
2023/04/11 07:39:13;;;;;;;0.03;0.00;;;8.10;99.90;;;;;;4841855;29;20400;-81
2023/04/11 07:41:39;;;;;;;1.00;0.30;;;8.10;99.90;;;;;;4842930;29;20050;-81
2023/04/11 07:44:06;;;;;;;0.10;0.10;;;8.00;99.90;;;;;;4827117;29;20544;-81
2023/04/11 07:46:32;;;;;;;0.20;0.10;;;8.00;99.90;;;;;;4841377;29;20053;-84
2023/04/11 07:48:58;;;;;;;1.67;0.32;;;8.00;99.90;;;;;;4826861;29;20515;-82
2023/04/11 07:51:26;;;;;;;0.10;0.10;;;8.00;99.90;;;;;;4843220;29;20050;-83
2023/04/11 07:53:53;;;;;;;0.10;0.10;;;8.00;99.90;;;;;;4843433;29;20514;-83
2023/04/11 07:56:18;;;;;;;0.47;0.47;;;8.00;99.90;;;;;;4842072;29;20058;-83
2023/04/11 07:58:44;;;;;;;0.10;0.10;;;8.00;99.90;;;;;;4841907;29;20073;-83
2023/04/11 08:01:23;;;;;;;0.10;0.10;;;8.20;99.90;;;;;;4842113;29;20053;-84
2023/04/11 08:03:51;;;;;;;0.10;0.10;;;8.20;99.90;;;;;;4842028;29;20099;-83
2023/04/11 08:06:17;;;;;;;0.15;0.15;;;8.20;99.90;;;;;;4842193;29;20053;-83
2023/04/11 08:08:44;;;;;;;0.53;0.53;;;8.10;99.90;;;;;;4841420;29;20041;-83
2023/04/11 08:11:09;;;;;;;0.10;0.10;;;8.10;99.90;;;;;;4842012;29;20097;-82
2023/04/11 08:13:35;;;;;;;0.00;0.00;;;8.10;99.90;;;;;;4826790;29;20058;-84
2023/04/11 08:16:06;;;;;;;0.10;0.10;;;8.10;99.90;;;;;;4842138;29;20400;-84
2023/04/11 08:18:32;;;;;;;0.70;0.10;;;8.20;99.90;;;;;;4842391;29;20049;-83
2023/04/11 08:20:58;;;;;;;0.30;0.17;;;8.20;99.90;;;;;;4827032;29;20425;-83
2023/04/11 08:23:23;;;;;;;0.00;0.00;;;8.10;99.90;;;;;;4856759;29;20086;-83
2023/04/11 08:25:49;;;;;;;0.00;0.00;;;8.30;99.90;;;;;;4843062;29;20047;-84
2023/04/11 08:28:15;;;;;;;0.20;0.20;;;8.60;99.90;;;;;;4841810;29;20496;-84
2023/04/11 08:30:40;;;;;;;0.10;0.10;;;8.90;99.90;;;;;;4826653;29;20061;-84
2023/04/11 08:33:08;;;;;;;0.20;0.20;;;8.90;99.90;;;;;;4844925;29;20059;-83
2023/04/11 08:35:34;;;;;;;0.28;0.20;;;8.80;99.90;;;;;;4840855;29;20053;-82
2023/04/11 08:37:59;;;;;;;0.03;0.00;;;8.60;99.90;;;;;;4841503;29;20051;-83
2023/04/11 08:40:27;;;;;;;0.20;0.20;;;8.80;99.90;;;;;;4842505;29;20046;-83
2023/04/11 08:42:58;;;;;;;0.20;0.10;;;9.20;99.90;;;;;;4842497;29;20140;-83
2023/04/11 08:45:24;;;;;;;0.10;0.10;;;9.70;99.90;;;;;;4841727;29;20053;-83
2023/04/11 08:47:50;;;;;;;0.38;0.03;;;10.20;99.90;;;;;;4840842;29;20049;-84
2023/04/11 08:50:16;;;;;;;0.00;0.00;;;10.50;99.90;;;;;;4826421;29;20128;-86
2023/04/11 08:52:43;;;;;;;0.08;0.08;;;10.60;99.90;;;;;;4841632;29;20129;-83
2023/04/11 08:55:09;;;;;;;0.10;0.10;;;10.50;99.90;;;;;;4841066;29;20539;-83
2023/04/11 08:57:36;;;;;;;0.00;0.00;;;10.10;99.90;;;;;;4842063;29;20129;-83
2023/04/11 09:00:16;;;;;;;1.75;0.20;;;9.60;99.90;;;;;;4842560;29;20498;-83
2023/04/11 09:03:02;;;;;;;0.10;0.10;;;9.20;99.90;;;;;;4840698;29;20049;-82
2023/04/11 09:05:31;;;;;;;1.65;1.00;;;9.00;99.90;;;;;;4841283;29;20465;-83
2023/04/11 09:07:59;;;;;;;0.00;0.00;;;9.10;99.90;;;;;;4826103;29;20049;-82
2023/04/11 09:10:26;;;;;;;0.00;0.00;;;9.30;99.90;;;;;;4841976;29;20058;-83
2023/04/11 09:12:53;;;;;;;0.10;0.10;;;9.30;99.90;;;;;;4841102;29;20133;-83
2023/04/11 09:15:20;;;;;;;;;;;9.20;99.90;;;;;;4842136;29;20061;-82
2023/04/11 09:17:45;;;;;;;0.15;0.15;;;8.90;99.90;;;;;;4841741;29;19924;-82
2023/04/11 09:20:24;;;;;;;0.00;0.00;;;8.70;99.90;;;;;;4841301;29;20106;-82
2023/04/11 09:22:52;;;;;;;0.05;0.05;;;8.70;99.90;;;;;;4842205;29;20061;-83
2023/04/11 09:25:19;;;;;;;0.43;0.10;;;9.00;99.90;;;;;;4842442;29;20082;-82
2023/04/11 09:27:45;;;;;;;0.05;0.05;;;9.50;99.90;;;;;;4825951;29;20050;-83
2023/04/11 09:30:25;;;;;;;0.30;0.05;;;9.90;99.90;;;;;;4841596;29;20400;-82
2023/04/11 09:32:52;;;;;;;0.00;0.00;;;10.10;99.90;;;;;;4825970;29;20133;-82
2023/04/11 09:35:19;;;;;;;0.10;0.10;;;10.20;99.90;;;;;;4842242;29;20053;-83
2023/04/11 09:37:46;;;;;;;;;;;10.20;99.90;;;;;;4841255;29;20054;-82
2023/04/11 09:40:13;;;;;;;0.10;0.10;;;10.10;99.90;;;;;;4856289;29;19924;-82
2023/04/11 09:42:42;;;;;;;0.52;0.52;;;9.90;99.90;;;;;;4840448;29;20054;-82
2023/04/11 09:45:22;;;;;;;0.38;0.28;;;9.70;99.90;;;;;;4841435;29;20102;-82
2023/04/11 09:47:49;;;;;;;0.00;0.00;;;9.30;99.90;;;;;;4825118;29;20060;-82
2023/04/11 09:50:15;;;;;;;0.10;0.10;;;9.00;99.90;;;;;;4826163;29;20054;-82
2023/04/11 09:52:43;;;;;;;0.00;0.00;;;8.70;99.90;;;;;;4825642;29;20054;-82
2023/04/11 09:55:13;;;;;;;0.00;0.00;;;8.50;99.90;;;;;;4840942;29;20046;-83
2023/04/11 09:57:45;;;;;;;0.10;0.10;;;8.30;99.90;;;;;;4840337;29;20531;-82
2023/04/11 10:00:18;;;;;;;0.10;0.10;;;8.20;99.90;;;;;;4842030;29;20050;-82
2023/04/11 10:02:48;;;;;;;0.10;0.10;;;8.10;99.90;;;;;;4840352;29;20054;-83
2023/04/11 10:05:16;;;;;;;0.00;0.00;;;8.00;99.90;;;;;;4840913;29;20057;-83
2023/04/11 10:08:09;;;;;;;0.15;0.00;;;8.00;99.90;;;;;;4841321;29;20393;-82
2023/04/11 10:10:35;;;;;;;0.03;0.00;;;8.00;99.90;;;;;;4842804;29;20058;-82
2023/04/11 10:13:02;;;;;;;0.10;0.10;;;8.00;99.90;;;;;;4843931;29;20057;-82
2023/04/11 10:15:28;;;;;;;0.28;0.28;;;8.10;99.90;;;;;;4829025;29;20053;-82
2023/04/11 10:18:11;;;;;;;0.00;0.00;;;8.30;99.90;;;;;;4843795;29;20404;-82
2023/04/11 10:20:45;;;;;;;0.10;0.10;;;8.60;99.90;;;;;;4844124;29;20501;-82
2023/04/11 10:23:13;;;;;;;0.05;0.05;;;8.90;99.90;;;;;;4845412;29;20053;-82
2023/04/11 10:25:58;;;;;;;0.13;0.00;;;9.30;99.90;;;;;;4844757;29;20504;-83
2023/04/11 10:28:37;;;;;;;0.10;0.10;;;9.70;99.90;;;;;;4843926;29;20056;-83
2023/04/11 10:31:05;;;;;;;0.10;0.10;;;10.00;99.90;;;;;;4843899;29;20103;-83
2023/04/11 10:33:32;;;;;;;0.00;0.00;;;10.30;99.90;;;;;;4829114;29;20074;-82
2023/04/11 10:36:02;;;;;;;0.20;0.20;;;10.60;99.90;;;;;;4843648;29;20054;-83
2023/04/11 10:38:40;;;;;;;0.30;0.30;;;10.80;99.90;;;;;;4843926;29;20053;-82
2023/04/11 10:41:18;;;;;;;0.30;0.10;;;10.90;99.90;;;;;;4843627;29;20078;-83
2023/04/11 10:43:45;;;;;;;0.15;0.10;;;10.90;99.90;;;;;;4843853;29;20050;-82
2023/04/11 10:46:21;;;;;;;0.20;0.10;;;10.70;99.90;;;;;;4828560;29;20049;-82
2023/04/11 10:49:10;;;;;;;0.00;0.00;;;10.20;99.90;;;;;;4829146;29;20053;-82
2023/04/11 10:51:36;;;;;;;0.00;0.00;;;10.00;99.90;;;;;;4844865;29;20132;-82
2023/04/11 10:54:01;;;;;;;0.20;0.20;;;10.00;99.90;;;;;;4843437;29;20136;-82
2023/04/11 10:56:57;;;;;;;0.00;0.00;;;9.90;99.90;;;;;;4843625;29;20086;-82
2023/04/11 10:59:34;;;;;;;0.10;0.10;;;9.80;99.90;;;;;;4835756;29;20066;-82
2023/04/11 11:02:01;;;;;;;0.00;0.00;;;9.70;99.90;;;;;;4843253;29;20042;-82
2023/04/11 11:04:37;;;;;;;0.28;0.28;;;9.70;99.90;;;;;;4843595;29;20401;-82
2023/04/11 11:07:05;;;;;;;0.00;0.00;;;10.00;99.90;;;;;;4858308;29;20045;-82
2023/04/11 11:09:32;;;;;;;0.05;0.03;;;10.30;99.90;;;;;;4844359;29;20094;-82
2023/04/11 11:12:12;;;;;;;0.30;0.30;;;10.60;99.90;;;;;;4842580;29;20113;-83
2023/04/11 11:14:39;;;;;;;0.17;0.13;;;10.60;99.90;;;;;;4844085;29;20504;-82
2023/04/11 11:17:05;;;;;;;0.13;0.13;;;10.30;99.90;;;;;;4842929;29;20091;-82
2023/04/11 11:19:32;;;;;;;0.08;0.03;;;10.10;99.90;;;;;;4828208;29;20049;-82
2023/04/11 11:22:02;;;;;;;0.17;0.00;;;10.10;99.90;;;;;;4842625;29;20069;-82
2023/04/11 11:24:28;;;;;;;0.03;0.00;;;10.30;99.90;;;;;;4843219;29;20069;-82
2023/04/11 11:26:55;;;;;;;0.32;0.32;;;10.40;99.90;;;;;;4842582;29;20053;-83
2023/04/11 11:29:39;;;;;;;0.00;0.00;;;10.30;99.90;;;;;;4842862;29;20418;-82
2023/04/11 11:32:05;;;;;;;0.32;0.20;;;10.00;99.90;;;;;;4842885;29;20399;-82
2023/04/11 11:34:33;;;;;;;0.10;0.10;;;9.90;99.90;;;;;;4843913;29;20132;-82
2023/04/11 11:37:00;;;;;;;0.00;0.00;;;9.80;99.90;;;;;;4857710;29;20050;-82
2023/04/11 11:39:29;;;;;;;0.00;0.00;;;9.90;99.90;;;;;;4844034;29;20089;-82
2023/04/11 11:41:55;;;;;;;0.00;0.00;;;10.20;99.90;;;;;;4842471;29;20050;-83
2023/04/11 11:44:28;;;;;;;0.00;0.00;;;10.50;99.90;;;;;;4827583;29;20046;-82
2023/04/11 11:47:11;;;;;;;1.27;0.10;;;10.50;99.90;;;;;;4843584;29;20129;-83
2023/04/11 11:49:47;;;;;;;0.00;0.00;;;10.30;99.90;;;;;;4828475;29;20104;-82
2023/04/11 11:52:38;;;;;;;0.20;0.05;;;10.00;99.90;;;;;;4857575;29;20140;-82
2023/04/11 11:55:08;;;;;;;0.13;0.00;;;9.70;99.90;;;;;;4842170;29;20377;-82
2023/04/11 11:57:35;;;;;;;0.10;0.10;;;9.60;99.90;;;;;;4857857;29;20054;-82
2023/04/11 12:00:08;;;;;;;0.00;0.00;;;9.90;99.90;;;;;;4843189;29;20050;-83
2023/04/11 12:02:37;;;;;;;0.03;0.03;;;10.20;99.90;;;;;;4843151;29;20046;-82
2023/04/11 12:05:06;;;;;;;0.20;0.20;;;10.60;99.90;;;;;;4827177;29;20484;-83
2023/04/11 12:07:35;;;;;;;0.03;0.03;;;10.90;99.90;;;;;;4842389;29;20046;-82
2023/04/11 12:10:06;;;;;;;0.00;0.00;;;11.20;99.90;;;;;;4842287;29;20108;-82
2023/04/11 12:12:35;;;;;;;0.13;0.13;;;11.30;99.90;;;;;;4842582;29;20097;-82
2023/04/11 12:15:02;;;;;;;0.10;0.08;;;11.10;99.90;;;;;;4842037;29;20056;-83
2023/04/11 12:17:33;;;;;;;0.00;0.00;;;11.20;99.90;;;;;;4842958;29;20094;-83
2023/04/11 12:20:00;;;;;;;0.00;0.00;;;11.30;99.90;;;;;;4843379;29;20057;-84
2023/04/11 12:22:25;;;;;;;0.32;0.20;;;11.70;99.90;;;;;;4827770;29;20111;-84
2023/04/11 12:24:52;;;;;;;0.00;0.00;;;11.90;99.90;;;;;;4827521;29;20053;-87
2023/04/11 12:27:18;;;;;;;0.00;0.00;;;12.00;99.90;;;;;;4827963;29;20093;-87
2023/04/11 12:29:45;;;;;;;0.00;0.00;;;12.10;99.90;;;;;;4858640;29;20049;-85
2023/04/11 12:32:11;;;;;;;0.70;0.15;;;12.10;99.90;;;;;;4826834;29;20109;-85
2023/04/11 12:34:36;;;;;;;0.53;0.20;;;12.30;99.90;;;;;;4841340;29;20492;-85
2023/04/11 12:37:02;;;;;;;0.10;0.00;;;12.20;99.90;;;;;;4826887;29;20433;-84
2023/04/11 12:39:28;;;;;;;0.50;0.13;;;12.20;99.90;;;;;;4826936;29;20054;-83
2023/04/11 12:41:54;;;;;;;0.17;0.17;;;12.30;99.90;;;;;;4826756;29;20400;-84
2023/04/11 12:44:19;;;;;;;0.43;0.43;;;12.40;99.90;;;;;;4826560;29;20042;-85
2023/04/11 12:46:45;;;;;;;0.00;0.00;;;12.30;99.90;;;;;;4841911;29;20050;-84
2023/04/11 12:49:11;;;;;;;0.00;0.00;;;12.20;99.90;;;;;;4841298;29;20038;-84
2023/04/11 12:51:36;;;;;;;0.00;0.00;;;12.30;99.90;;;;;;4842873;29;20460;-84
2023/04/11 12:54:03;;;;;;;0.20;0.20;;;12.60;99.90;;;;;;4826579;29;20042;-85
2023/04/11 12:56:29;;;;;;;0.10;0.10;;;12.30;99.90;;;;;;4841673;29;20197;-85
2023/04/11 12:58:55;;;;;;;0.00;0.00;;;12.20;99.90;;;;;;4856928;29;20137;-86
2023/04/11 13:01:22;;;;;;;0.10;0.10;;;11.00;99.90;;;;;;4826262;29;20299;-87
2023/04/11 13:03:47;;;;;;;0.00;0.00;;;11.90;99.90;;;;;;4826636;29;20167;-85
2023/04/11 13:06:13;;;;;;;0.40;0.40;;;12.20;99.90;;;;;;4841656;29;20090;-84
2023/04/11 13:08:39;;;;;;;0.00;0.00;;;12.20;99.90;;;;;;4841409;29;20046;-83
2023/04/11 13:11:05;;;;;;;0.10;0.10;;;12.10;99.90;;;;;;4841278;29;20093;-83
2023/04/11 13:13:31;;;;;;;0.00;0.00;;;12.20;99.90;;;;;;4841392;29;20066;-83
2023/04/11 13:15:57;;;;;;;0.00;0.00;;;12.20;99.90;;;;;;4841242;29;20058;-82
2023/04/11 13:18:22;;;;;;;0.90;0.17;;;12.30;99.90;;;;;;4825708;29;20142;-81
2023/04/11 13:20:48;;;;;;;0.10;0.10;;;12.50;99.90;;;;;;4826462;29;20069;-82
2023/04/11 13:23:14;;;;;;;0.00;0.00;;;12.70;99.90;;;;;;4825979;29;20053;-81
2023/04/11 13:25:39;;;;;;;0.00;0.00;;;12.90;99.90;;;;;;4826323;29;20083;-82
2023/04/11 13:28:05;;;;;;;0.43;0.43;;;13.20;99.90;;;;;;4825716;29;20342;-82
2023/04/11 13:30:31;;;;;;;0.00;0.00;;;13.10;99.90;;;;;;4826031;29;20050;-82
2023/04/11 13:32:56;;;;;;;0.27;0.20;;;12.80;99.90;;;;;;4826216;29;20050;-83
2023/04/11 13:35:22;;;;;;;0.10;0.10;;;12.50;99.90;;;;;;4825838;29;20377;-82
2023/04/11 13:37:48;;;;;;;0.00;0.00;;;12.50;99.90;;;;;;4841248;29;20105;-83
2023/04/11 13:40:14;;;;;;;0.08;0.08;;;12.30;99.90;;;;;;4840931;29;20093;-83
2023/04/11 13:42:40;;;;;;;0.00;0.00;;;12.00;99.90;;;;;;4826196;29;20064;-83
2023/04/11 13:45:06;;;;;;;0.10;0.10;;;11.80;99.90;;;;;;4842049;29;20125;-83
2023/04/11 13:47:32;;;;;;;0.05;0.05;;;11.80;99.90;;;;;;4844507;29;20448;-83
2023/04/11 13:49:58;;;;;;;0.00;0.00;;;11.60;99.90;;;;;;4844910;29;20054;-84
2023/04/11 13:52:23;;;;;;;0.03;0.03;;;11.80;99.90;;;;;;4829164;29;20050;-83
2023/04/11 13:54:49;;;;;;;0.00;0.00;;;11.90;99.90;;;;;;4829330;29;20140;-81
2023/04/11 13:57:15;;;;;;;0.17;0.17;;;11.90;99.90;;;;;;4829095;29;20050;-83
2023/04/11 13:59:40;;;;;;;0.00;0.00;;;11.80;99.90;;;;;;4829598;29;20484;-83
2023/04/11 14:02:07;;;;;;;0.10;0.10;;;11.80;99.90;;;;;;4844312;29;20056;-83
2023/04/11 14:04:32;;;;;;;0.28;0.28;;;11.90;99.90;;;;;;4859010;29;20394;-83
2023/04/11 14:06:58;;;;;;;0.10;0.10;;;10.90;99.90;;;;;;4844002;29;20089;-82
2023/04/11 14:09:24;;;;;;;0.20;0.10;;;11.90;99.90;;;;;;4828208;29;20510;-83
2023/04/11 14:11:50;;;;;;;0.20;0.00;;;12.00;99.90;;;;;;4828481;29;20148;-83
2023/04/11 14:14:15;;;;;;;0.00;0.00;;;12.10;99.90;;;;;;4843649;29;20060;-82
2023/04/11 14:16:41;;;;;;;0.37;0.37;;;12.10;99.90;;;;;;4844015;29;20648;-83
2023/04/11 14:19:07;;;;;;;0.10;0.10;;;11.80;99.90;;;;;;4843371;29;20098;-83
2023/04/11 14:21:32;;;;;;;0.00;0.00;;;11.80;99.90;;;;;;4842749;29;20053;-83
2023/04/11 14:23:58;;;;;;;0.00;0.00;;;11.80;99.90;;;;;;4828360;29;20053;-84
2023/04/11 14:26:24;;;;;;;0.47;0.23;;;12.10;99.90;;;;;;4827985;29;20085;-85
2023/04/11 14:28:50;;;;;;;0.10;0.10;;;12.20;99.90;;;;;;4843653;29;20058;-83
2023/04/11 14:31:16;;;;;;;0.10;0.07;;;12.20;99.90;;;;;;4844716;29;20079;-84
2023/04/11 14:33:41;;;;;;;0.30;0.30;;;12.00;99.90;;;;;;4828028;29;20291;-83
2023/04/11 14:36:07;;;;;;;0.57;0.30;;;12.30;99.90;;;;;;4843483;29;20465;-84
2023/04/11 14:38:33;;;;;;;0.00;0.00;;;12.30;99.90;;;;;;4843036;29;20053;-82
2023/04/11 14:40:59;;;;;;;0.00;0.00;;;12.10;99.90;;;;;;4843540;29;20054;-82
2023/04/11 14:43:24;;;;;;;0.10;0.10;;;12.00;99.90;;;;;;4827616;29;20098;-82
2023/04/11 14:45:55;;;;;;;0.10;0.10;;;12.10;99.90;;;;;;4828227;29;20492;-82
2023/04/11 14:48:21;;;;;;;0.57;0.57;;;12.20;99.90;;;;;;4842736;29;20050;-82
2023/04/11 14:50:46;;;;;;;0.10;0.10;;;12.20;99.90;;;;;;4843295;29;20053;-81
2023/04/11 14:53:12;;;;;;;0.10;0.10;;;12.30;99.90;;;;;;4827887;29;20045;-82
2023/04/11 14:55:40;;;;;;;0.17;0.17;;;12.20;99.90;;;;;;4827773;29;20054;-82
2023/04/11 14:58:06;;;;;;;2.65;0.43;;;12.10;99.90;;;;;;4842262;29;20054;-82
2023/04/11 15:00:31;;;;;;;0.00;0.00;;;12.00;99.90;;;;;;4827684;29;20136;-83
2023/04/11 15:02:57;;;;;;;0.00;0.00;;;11.90;99.90;;;;;;4827957;29;20058;-83
2023/04/11 15:05:23;;;;;;;0.10;0.10;;;12.10;99.90;;;;;;4827117;29;20527;-83
2023/04/11 15:07:51;;;;;;;0.00;0.00;;;12.30;99.90;;;;;;4843071;29;20046;-83
2023/04/11 15:10:18;;;;;;;0.00;0.00;;;12.30;99.90;;;;;;4843103;29;20061;-83
2023/04/11 15:12:44;;;;;;;0.30;0.00;;;12.20;99.90;;;;;;4857477;29;20061;-83
2023/04/11 15:15:11;;;;;;;0.00;0.00;;;12.20;99.90;;;;;;4827327;29;20115;-82
2023/04/11 15:18:06;;;;;;;0.00;0.00;;;12.00;99.90;;;;;;4842300;29;20397;-83
2023/04/11 15:20:32;;;;;;;0.00;0.00;;;11.90;99.90;;;;;;4841377;29;20054;-83
2023/04/11 15:22:58;;;;;;;0.17;0.10;;;11.60;99.90;;;;;;4827733;29;20064;-82
2023/04/11 15:25:23;;;;;;;0.30;0.30;;;11.70;99.90;;;;;;4827378;29;20057;-82
2023/04/11 15:27:49;;;;;;;0.20;0.00;;;11.70;99.90;;;;;;4827123;29;20045;-82
2023/04/11 15:30:15;;;;;;;0.00;0.00;;;11.60;99.90;;;;;;4842916;29;20054;-86
2023/04/11 15:32:44;;;;;;;0.00;0.00;;;11.50;99.90;;;;;;4826614;29;20109;-83
2023/04/11 15:35:10;;;;;;;0.03;0.03;;;11.60;99.90;;;;;;4842707;29;20137;-83
2023/04/11 15:37:36;;;;;;;0.10;0.10;;;11.80;99.90;;;;;;4842292;29;20210;-83
2023/04/11 15:40:04;;;;;;;0.00;0.00;;;12.00;99.90;;;;;;4827244;29;20310;-84
2023/04/11 15:42:32;;;;;;;0.10;0.10;;;12.10;99.90;;;;;;4827360;29;20053;-83
2023/04/11 15:44:58;;;;;;;0.08;0.08;;;12.30;99.90;;;;;;4827419;29;20075;-84
2023/04/11 15:47:24;;;;;;;0.47;0.10;;;12.20;99.90;;;;;;4827106;29;20050;-84
2023/04/11 15:49:50;;;;;;;0.45;0.20;;;12.10;99.90;;;;;;4826975;29;20058;-86
2023/04/11 15:52:16;;;;;;;0.10;0.10;;;12.00;99.90;;;;;;4827120;29;20046;-81
2023/04/11 15:54:42;;;;;;;1.35;0.00;;;11.90;99.90;;;;;;4841822;29;20386;-83
2023/04/11 15:57:08;;;;;;;0.40;0.10;;;11.80;99.90;;;;;;4827144;29;20046;-83
2023/04/11 15:59:36;;;;;;;0.07;0.07;;;11.80;99.90;;;;;;4826417;29;20084;-83
2023/04/11 16:02:03;;;;;;;0.03;0.03;;;11.90;99.90;;;;;;4842289;29;20057;-82
2023/04/11 16:04:28;;;;;;;0.40;0.13;;;11.80;99.90;;;;;;4841999;29;20089;-82
2023/04/11 16:06:55;;;;;;;0.00;0.00;;;11.90;99.90;;;;;;4841340;29;20136;-81
2023/04/11 16:09:21;;;;;;;0.03;0.03;;;11.80;99.90;;;;;;4842841;29;20053;-82
2023/04/11 16:11:47;;;;;;;0.07;0.07;;;11.80;99.90;;;;;;4841062;29;20069;-83
2023/04/11 16:14:12;;;;;;;0.30;0.07;;;11.70;99.90;;;;;;4842035;29;20050;-85
2023/04/11 16:16:38;;;;;;;0.10;0.10;;;11.60;99.90;;;;;;4826742;29;20094;-82
2023/04/11 16:19:05;;;;;;;0.00;0.00;;;11.50;99.90;;;;;;4841908;29;20104;-82
2023/04/11 16:21:31;;;;;;;;;;;11.40;99.90;;;;;;4827049;29;20065;-82
2023/04/11 16:23:56;;;;;;;0.10;0.10;;;11.40;99.90;;;;;;4826524;29;19980;-82
2023/04/11 16:26:22;;;;;;;0.00;0.00;;;11.40;99.90;;;;;;4826573;29;20085;-82
2023/04/11 16:28:49;;;;;;;0.00;0.00;;;11.30;99.90;;;;;;4825431;29;20045;-82
2023/04/11 16:31:20;;;;;;;;;;;11.30;99.90;;;;;;4826867;29;20050;-82
2023/04/11 16:33:46;;;;;;;0.05;0.05;;;11.30;99.90;;;;;;4841358;29;19931;-82
2023/04/11 16:36:12;;;;;;;0.00;0.00;;;11.30;99.90;;;;;;4811254;29;20404;-82
2023/04/11 16:38:37;;;;;;;0.07;0.07;;;11.20;99.90;;;;;;4826495;29;20065;-83
2023/04/11 16:41:03;;;;;;;0.33;0.10;;;11.20;99.90;;;;;;4826352;29;20065;-82
2023/04/11 16:43:29;;;;;;;0.00;0.00;;;11.10;99.90;;;;;;4826445;29;20057;-82
2023/04/11 16:45:55;;;;;;;0.30;0.30;;;11.10;99.90;;;;;;4825976;29;20054;-83
2023/04/11 16:48:20;;;;;;;0.00;0.00;;;11.00;99.90;;;;;;4841106;29;20484;-83
2023/04/11 16:50:46;;;;;;;0.00;0.00;;;11.00;99.90;;;;;;4826483;29;20091;-83
2023/04/11 16:53:12;;;;;;;0.20;0.20;;;11.00;99.90;;;;;;4826534;29;20552;-85
2023/04/11 16:55:37;;;;;;;0.40;0.10;;;11.00;99.90;;;;;;4810877;29;20061;-82
2023/04/11 16:58:03;;;;;;;0.53;0.07;;;11.00;99.90;;;;;;4841184;29;20401;-83
2023/04/11 17:00:29;;;;;;;1.50;0.57;;;11.10;99.90;;;;;;4810637;29;20515;-83
2023/04/11 17:02:55;;;;;;;0.00;0.00;;;10.80;99.90;;;;;;4840582;29;20514;-85
2023/04/11 17:05:22;;;;;;;0.00;0.00;;;10.70;99.90;;;;;;4826133;29;20122;-85
2023/04/11 17:07:48;;;;;;;0.00;0.00;;;10.70;99.90;;;;;;4825565;29;20378;-83
2023/04/11 17:10:14;;;;;;;0.70;0.13;;;10.60;99.90;;;;;;4825894;29;20083;-84
2023/04/11 17:12:40;;;;;;;0.00;0.00;;;10.50;99.90;;;;;;4825544;29;20064;-83
2023/04/11 17:15:07;;;;;;;0.03;0.03;;;10.40;99.90;;;;;;4840872;29;20137;-83
2023/04/11 17:17:33;;;;;;;0.05;0.05;;;10.30;99.90;;;;;;4825997;29;20046;-84
2023/04/11 17:20:00;;;;;;;0.00;0.00;;;10.30;99.90;;;;;;4838525;29;20050;-84
2023/04/11 17:22:26;;;;;;;1.13;0.20;;;10.20;99.90;;;;;;4826046;29;20054;-83
2023/04/11 17:24:52;;;;;;;0.23;0.23;;;10.10;99.90;;;;;;4840294;29;20111;-84
2023/04/11 17:27:18;;;;;;;0.00;0.00;;;10.10;99.90;;;;;;4825834;29;20050;-82
2023/04/11 17:29:44;;;;;;;0.10;0.10;;;10.10;99.90;;;;;;4825425;29;20437;-83
2023/04/11 17:32:10;;;;;;;0.00;0.00;;;10.10;99.90;;;;;;4841845;29;20108;-83
2023/04/11 17:34:37;;;;;;;;;;;10.00;99.90;;;;;;4825599;29;20053;-83
2023/04/11 17:37:02;;;;;;;0.00;0.00;;;10.00;99.90;;;;;;4839924;29;20371;-83
2023/04/11 17:39:28;;;;;;;0.10;0.00;;;9.90;99.90;;;;;;4825533;29;20109;-83
2023/04/11 17:41:56;;;;;;;0.00;0.00;;;9.80;99.90;;;;;;4825364;29;20420;-83
2023/04/11 17:44:21;;;;;;;0.10;0.10;;;9.80;99.90;;;;;;4839637;29;20102;-84
2023/04/11 17:46:47;;;;;;;0.00;0.00;;;9.70;99.90;;;;;;4841103;29;20504;-84
2023/04/11 17:49:13;;;;;;;0.00;0.00;;;9.70;99.90;;;;;;4839687;29;20497;-84
2023/04/11 17:51:39;;;;;;;0.10;0.10;;;9.60;99.90;;;;;;4825434;29;20053;-84
2023/04/11 17:54:05;;;;;;;0.00;0.00;;;9.60;99.90;;;;;;4840096;29;20065;-84
2023/04/11 17:56:31;;;;;;;0.10;0.10;;;9.50;99.90;;;;;;4841893;29;20297;-83
2023/04/11 17:58:57;;;;;;;0.10;0.10;;;9.50;99.90;;;;;;4840071;29;20547;-83
2023/04/11 18:01:23;;;;;;;0.00;0.00;;;9.50;99.90;;;;;;4841618;29;20614;-83
2023/04/11 18:03:49;;;;;;;0.00;0.00;;;9.40;99.90;;;;;;4839625;29;20057;-83
2023/04/11 18:06:15;;;;;;;0.00;0.00;;;9.40;99.90;;;;;;4840533;29;20042;-85